Merced Regional Macready Field Merced US
ICAO: KMCE
IATA: MCE
Category: Medium
Scheduled Services: No

Elevation: 155 ft
TransAlt. 18000 ft.

Airport Communications:
NORCAL APP/DEP:120.95
ASOS:132.175
CTAF/UNICOM:122.7

KMCE Zoom In..

Runways:

(A) RW 12 length 5914 ft width 150 ft
---- / hdg 123

(B) RW 30 length 5914 ft width 150 ft
ILS 109.30 / hdg 303

Location; KMCE
Day. 19 / Time. 20.53 Zulu
* Altimeter: 30.03
* Temperature: 21° c. 69.8°f.
* Wind from: 290° Speed 13 kn with Gusts up to 27 kn.
Dewpoint: 03° c.
Visibility: 10 Statute Miles.
Clouds: Few 7000 ft.

KMCE 192053Z AUTO 29013G27KT 10SM FEW070 21/03 A3003 RMK AO2 PK WND 32027/2044 SLP169 T02060033 58008


Wind From 290°
Speed 13 kn.

  YouTube Music Video
 
jpsmedia.com for Web Design  worldairports.se 2018   terms of use